Météo Nord-Pas-de-Calais   La météo au plus près de chez vous

Station météorologique

Observations météo à Rocroi (08367)

08367002 382 m Dernier relevé à 17:54
24.2°C
Humidité 34 % Vent 10.4 km/h

Journée consultée

Dimanche 6 Septembre 2026

Synthèse de la journée

Périodes de référence en UTC

Température maximale

26.3°C

à 16:48

06h 06h

Température minimale

8.9°C

à 08:00

18h 18h

Rafale maximale

29 km/h

à 12:12

00h 00h

Précipitations

0 mm

Cumul quotidien

06h 06h

Graphiques de la journée

Heure locale Réduire

Données détaillées

Relevés météo

Pas de 6 minutes Afficher les relevés infra-horaires
Relevés météo détaillés à Rocroi pour le Dimanche 6 Septembre 2026
Heure Température °C Point de rosée °C Humidité % Vent moyen (raf.), km/h Précipitations mm
17:54 24.2 °C 9 °C 38 % 7 km/h (15 km/h) 0 mm0 mm
17:48 24.1 °C 8.1 °C 36 % 10 km/h (17 km/h) 0 mm0 mm
17:42 24.7 °C 6.9 °C 32 % 10 km/h (19 km/h) 0 mm0 mm
17:36 25.2 °C 7.8 °C 33 % 10 km/h (18 km/h) 0 mm0 mm
17:30 24.9 °C 7.5 °C 33 % 10 km/h (18 km/h) 0 mm0 mm
17:24 25.1 °C 8.6 °C 35 % 11 km/h (20 km/h) 0 mm0 mm
17:18 25.4 °C 8.4 °C 34 % 12 km/h (20 km/h) 0 mm0 mm
17:12 25.2 °C 7.8 °C 33 % 12 km/h (20 km/h) 0 mm0 mm
17:06 25.6 °C 7.7 °C 32 % 10 km/h (16 km/h) 0 mm0 mm
17:00 25.6 °C 7.2 °C 31 % 11 km/h (19 km/h) 0 mm0 mm
16:54 26 °C 8.9 °C 34 % 10 km/h (19 km/h) 0 mm0 mm
16:48 26.3 °C 8.3 °C 32 % 9 km/h (20 km/h) 0 mm0 mm
16:42 25.9 °C 8.8 °C 34 % 10 km/h (20 km/h) 0 mm0 mm
16:36 25.6 °C 9 °C 35 % 8 km/h (18 km/h) 0 mm0 mm
16:30 25.2 °C 8.2 °C 34 % 9 km/h (15 km/h) 0 mm0 mm
16:24 25.1 °C 8.1 °C 34 % 10 km/h (17 km/h) 0 mm0 mm
16:18 25.7 °C 9.1 °C 35 % 12 km/h (23 km/h) 0 mm0 mm
16:12 25.8 °C 9.6 °C 36 % 12 km/h (23 km/h) 0 mm0 mm
16:06 25.9 °C 8.4 °C 33 % 12 km/h (23 km/h) 0 mm0 mm
16:00 26.2 °C 9.5 °C 35 % 10 km/h (23 km/h) 0 mm0 mm
15:54 25.8 °C 10.8 °C 39 % 11 km/h (23 km/h) 0 mm0 mm
15:48 25.4 °C 10.8 °C 40 % 12 km/h (21 km/h) 0 mm0 mm
15:42 24.8 °C 9.9 °C 39 % 12 km/h (22 km/h) 0 mm0 mm
15:36 23.8 °C 9.4 °C 40 % 11 km/h (22 km/h) 0 mm0 mm
15:30 24.5 °C 11.8 °C 45 % 12 km/h (24 km/h) 0 mm0 mm
15:24 24.5 °C 10 °C 40 % 14 km/h (24 km/h) 0 mm0 mm
15:18 25 °C 10.1 °C 39 % 12 km/h (21 km/h) 0 mm0 mm
15:12 25.6 °C 9.8 °C 37 % 10 km/h (18 km/h) 0 mm0 mm
15:06 26 °C 10.6 °C 38 % 9 km/h (18 km/h) 0 mm0 mm
15:00 25.6 °C 12.4 °C 44 % 9 km/h (17 km/h) 0 mm0 mm
14:54 25.8 °C 11.9 °C 42 % 12 km/h (20 km/h) 0 mm0 mm
14:48 25.3 °C 10.7 °C 40 % 14 km/h (24 km/h) 0 mm0 mm
14:42 25.2 °C 11.4 °C 42 % 13 km/h (24 km/h) 0 mm0 mm
14:36 24.9 °C 11.8 °C 44 % 12 km/h (19 km/h) 0 mm0 mm
14:30 24.5 °C 11.8 °C 45 % 12 km/h (19 km/h) 0 mm0 mm
14:24 24.1 °C 11.1 °C 44 % 14 km/h (21 km/h) 0 mm0 mm
14:18 23.6 °C 11.3 °C 46 % 11 km/h (21 km/h) 0 mm0 mm
14:12 23 °C 11.1 °C 47 % 11 km/h (21 km/h) 0 mm0 mm
14:06 22.8 °C 11.2 °C 48 % 12 km/h (21 km/h) 0 mm0 mm
14:00 23 °C 11.1 °C 47 % 11 km/h (19 km/h) 0 mm0 mm
13:54 22.7 °C 10.2 °C 45 % 13 km/h (22 km/h) 0 mm0 mm
13:48 22.5 °C 10.6 °C 47 % 13 km/h (26 km/h) 0 mm0 mm
13:42 22.7 °C 10.8 °C 47 % 13 km/h (26 km/h) 0 mm0 mm
13:36 22.6 °C 11 °C 48 % 14 km/h (25 km/h) 0 mm0 mm
13:30 22.6 °C 10.4 °C 46 % 14 km/h (25 km/h) 0 mm0 mm
13:24 22.5 °C 11.6 °C 50 % 13 km/h (23 km/h) 0 mm0 mm
13:18 22.5 °C 10.3 °C 46 % 16 km/h (26 km/h) 0 mm0 mm
13:12 22.6 °C 11 °C 48 % 14 km/h (25 km/h) 0 mm0 mm
13:06 22.3 °C 11.4 °C 50 % 12 km/h (21 km/h) 0 mm0 mm
13:00 21.7 °C 11.1 °C 51 % 13 km/h (25 km/h) 0 mm0 mm
12:54 21.7 °C 10.8 °C 50 % 13 km/h (24 km/h) 0 mm0 mm
12:48 21.5 °C 11.2 °C 52 % 15 km/h (24 km/h) 0 mm0 mm
12:42 21.2 °C 10.9 °C 52 % 16 km/h (26 km/h) 0 mm0 mm
12:36 21.5 °C 10 °C 48 % 16 km/h (26 km/h) 0 mm0 mm
12:30 21.6 °C 11.3 °C 52 % 14 km/h (25 km/h) 0 mm0 mm
12:24 21.3 °C 11.6 °C 54 % 15 km/h (24 km/h) 0 mm0 mm
12:18 20.8 °C 10.9 °C 53 % 15 km/h (29 km/h) 0 mm0 mm
12:12 20.6 °C 10.4 °C 52 % 14 km/h (29 km/h) 0 mm0 mm
12:06 21.1 °C 11.1 °C 53 % 13 km/h (24 km/h) 0 mm0 mm
12:00 21.1 °C 11.1 °C 53 % 16 km/h (27 km/h) 0 mm0 mm
11:54 20.8 °C 11.1 °C 54 % 18 km/h (27 km/h) 0 mm0 mm
11:48 20.4 °C 11.3 °C 56 % 16 km/h (27 km/h) 0 mm0 mm
11:42 20 °C 11.2 °C 57 % 13 km/h (24 km/h) 0 mm0 mm
11:36 20.1 °C 11.6 °C 58 % 14 km/h (24 km/h) 0 mm0 mm
11:30 19.7 °C 11.2 °C 58 % 14 km/h (22 km/h) 0 mm0 mm
11:24 19.8 °C 11.3 °C 58 % 12 km/h (21 km/h) 0 mm0 mm
11:18 19.7 °C 11.7 °C 60 % 12 km/h (20 km/h) 0 mm0 mm
11:12 19.6 °C 11.4 °C 59 % 10 km/h (18 km/h) 0 mm0 mm
11:06 19.8 °C 12.8 °C 64 % 10 km/h (16 km/h) 0 mm0 mm
11:00 19.2 °C 12.5 °C 65 % 9 km/h (16 km/h) 0 mm0 mm
10:54 18.8 °C 12.3 °C 66 % 11 km/h (18 km/h) 0 mm0 mm
10:48 18.3 °C 11.8 °C 66 % 11 km/h (18 km/h) 0 mm0 mm
10:42 17.8 °C 11.6 °C 67 % 12 km/h (19 km/h) 0 mm0 mm
10:36 17.4 °C 11.4 °C 68 % 11 km/h (19 km/h) 0 mm0 mm
10:30 17 °C 11.3 °C 69 % 12 km/h (23 km/h) 0 mm0 mm
10:24 17 °C 11 °C 68 % 15 km/h (25 km/h) 0 mm0 mm
10:18 17 °C 11.3 °C 69 % 15 km/h (25 km/h) 0 mm0 mm
10:12 17 °C 11.5 °C 70 % 14 km/h (22 km/h) 0 mm0 mm
10:06 16.6 °C 11.3 °C 71 % 14 km/h (24 km/h) 0 mm0 mm
10:00 16.3 °C 11 °C 71 % 15 km/h (26 km/h) 0 mm0 mm
09:54 16 °C 11.2 °C 73 % 13 km/h (26 km/h) 0 mm0 mm
09:48 16 °C 11.6 °C 75 % 11 km/h (19 km/h) 0 mm0 mm
09:42 15.6 °C 11.2 °C 75 % 11 km/h (20 km/h) 0 mm0 mm
09:36 15.3 °C 11.9 °C 80 % 12 km/h (20 km/h) 0 mm0 mm
09:30 14.9 °C 11.3 °C 79 % 12 km/h (18 km/h) 0 mm0 mm
09:24 14.4 °C 11 °C 80 % 11 km/h (19 km/h) 0 mm0 mm
09:18 14 °C 10.6 °C 80 % 12 km/h (19 km/h) 0 mm0 mm
09:12 13.7 °C 10.7 °C 82 % 12 km/h (19 km/h) 0 mm0 mm
09:06 13.3 °C 10.5 °C 83 % 10 km/h (16 km/h) 0 mm0 mm
09:00 13.1 °C 10.6 °C 85 % 10 km/h (18 km/h) 0 mm0 mm
08:54 12.9 °C 10.8 °C 87 % 10 km/h (18 km/h) 0 mm0 mm
08:48 12.6 °C 11 °C 90 % 8 km/h (16 km/h) 0 mm0 mm
08:42 12.4 °C 11.5 °C 94 % 6 km/h (12 km/h) 0 mm0 mm
08:36 12.2 °C 11.6 °C 96 % 6 km/h (12 km/h) 0 mm0 mm
08:30 11.8 °C 11.3 °C 97 % 4 km/h (12 km/h) 0 mm0 mm
08:24 11.5 °C 11.2 °C 98 % 3 km/h (6 km/h) 0 mm0 mm
08:18 11.2 °C 10.9 °C 98 % 5 km/h (9 km/h) 0 mm0 mm
08:12 11 °C 10.7 °C 98 % 6 km/h (9 km/h) 0 mm0 mm
08:06 10.8 °C 10.5 °C 98 % 4 km/h (7 km/h) 0 mm0 mm
08:00 10.4 °C 10.1 °C 98 % 4 km/h (6 km/h) 0 mm0 mm
07:54 10 °C 9.7 °C 98 % 5 km/h (10 km/h) 0 mm0 mm
07:48 9.8 °C 9.5 °C 98 % 4 km/h (8 km/h) 0 mm0 mm
07:42 9.5 °C 9 °C 97 % 3 km/h (5 km/h) 0 mm0 mm
07:36 9.3 °C 8.8 °C 97 % 3 km/h (8 km/h) 0 mm0 mm
07:30 9.1 °C 8.6 °C 97 % 4 km/h (8 km/h) 0 mm0 mm
07:24 9 °C 8.4 °C 96 % 4 km/h (8 km/h) 0 mm0 mm
07:18 9 °C 8.4 °C 96 % 4 km/h (8 km/h) 0 mm0 mm
07:12 9 °C 8.4 °C 96 % 3 km/h (9 km/h) 0 mm0 mm
07:06 9.1 °C 8.5 °C 96 % 3 km/h (9 km/h) 0 mm0 mm
07:00 9.2 °C 8.6 °C 96 % 3 km/h (6 km/h) 0 mm0 mm
06:54 9.2 °C 8.4 °C 95 % 4 km/h (6 km/h) 0 mm0 mm
06:48 9.3 °C 8.5 °C 95 % 3 km/h (6 km/h) 0 mm0 mm
06:42 9.4 °C 8.8 °C 96 % 2 km/h (5 km/h) 0 mm0 mm
06:36 9.3 °C 8.5 °C 95 % 3 km/h (5 km/h) 0 mm0 mm
06:30 9.5 °C 8.7 °C 95 % 4 km/h (6 km/h) 0 mm0 mm
06:24 9.5 °C 8.7 °C 95 % 4 km/h (7 km/h) 0 mm0 mm
06:18 9.5 °C 8.7 °C 95 % 4 km/h (8 km/h) 0 mm0 mm
06:12 9.6 °C 9 °C 96 % 4 km/h (8 km/h) 0 mm0 mm
06:06 9.6 °C 9 °C 96 % 4 km/h (9 km/h) 0 mm0 mm
06:00 9.6 °C 9 °C 96 % 3 km/h (7 km/h) 0 mm0 mm
05:54 9.5 °C 8.9 °C 96 % 4 km/h (8 km/h) 0 mm0 mm
05:48 9.6 °C 9 °C 96 % 4 km/h (8 km/h) 0 mm0 mm
05:42 9.4 °C 8.8 °C 96 % 4 km/h (8 km/h) 0 mm0 mm
05:36 9.6 °C 9 °C 96 % 4 km/h (7 km/h) 0 mm0 mm
05:30 9.6 °C 9 °C 96 % 4 km/h (6 km/h) 0 mm0 mm
05:24 9.4 °C 8.8 °C 96 % 3 km/h (5 km/h) 0 mm0 mm
05:18 9.4 °C 8.8 °C 96 % 3 km/h (5 km/h) 0 mm0 mm
05:12 9.4 °C 8.6 °C 95 % 3 km/h (6 km/h) 0 mm0 mm
05:06 9.2 °C 8.3 °C 94 % 4 km/h (6 km/h) 0 mm0 mm
05:00 9.3 °C 8.4 °C 94 % 5 km/h (9 km/h) 0 mm0 mm
04:54 9.3 °C 8.4 °C 94 % 4 km/h (9 km/h) 0 mm0 mm
04:48 9.4 °C 8.5 °C 94 % 4 km/h (7 km/h) 0 mm0 mm
04:42 9.2 °C 8 °C 92 % 4 km/h (7 km/h) 0 mm0 mm
04:36 9.5 °C 8.4 °C 93 % 5 km/h (7 km/h) 0 mm0 mm
04:30 9.7 °C 8.6 °C 93 % 6 km/h (8 km/h) 0 mm0 mm
04:24 9.8 °C 8.7 °C 93 % 6 km/h (8 km/h) 0 mm0 mm
04:18 9.9 °C 9 °C 94 % 5 km/h (8 km/h) 0 mm0 mm
04:12 9.9 °C 9 °C 94 % 5 km/h (8 km/h) 0 mm0 mm
04:06 9.8 °C 9 °C 95 % 4 km/h (6 km/h) 0 mm0 mm
04:00 9.6 °C 8.7 °C 94 % 4 km/h (6 km/h) 0 mm0 mm
03:54 9.8 °C 8.9 °C 94 % 3 km/h (6 km/h) 0 mm0 mm
03:48 9.8 °C 8.9 °C 94 % 2 km/h (5 km/h) 0 mm0 mm
03:42 9.9 °C 9 °C 94 % 0 km/h (4 km/h) 0 mm0 mm
03:36 9.8 °C 8.9 °C 94 % 3 km/h (4 km/h) 0 mm0 mm
03:30 9.8 °C 8.9 °C 94 % 3 km/h (4 km/h) 0 mm0 mm
03:24 9.9 °C 9 °C 94 % 2 km/h (5 km/h) 0 mm0 mm
03:18 9.8 °C 8.9 °C 94 % 4 km/h (6 km/h) 0 mm0 mm
03:12 9.8 °C 8.7 °C 93 % 4 km/h (6 km/h) 0 mm0 mm
03:06 9.8 °C 8.6 °C 92 % 3 km/h (6 km/h) 0 mm0 mm
03:00 9.9 °C 8.7 °C 92 % 4 km/h (6 km/h) 0 mm0 mm
02:54 10.1 °C 9 °C 93 % 5 km/h (6 km/h) 0 mm0 mm
02:48 10 °C 8.6 °C 91 % 4 km/h (6 km/h) 0 mm0 mm
02:42 10.2 °C 9 °C 92 % 3 km/h (6 km/h) 0 mm0 mm
02:36 10 °C 8.6 °C 91 % 4 km/h (7 km/h) 0 mm0 mm
02:30 10.1 °C 8.5 °C 90 % 4 km/h (7 km/h) 0 mm0 mm
02:24 10.2 °C 8.6 °C 90 % 5 km/h (8 km/h) 0 mm0 mm
02:18 10.4 °C 9 °C 91 % 5 km/h (8 km/h) 0 mm0 mm
02:12 10.4 °C 8.8 °C 90 % 5 km/h (8 km/h) 0 mm0 mm
02:06 10.4 °C 8.8 °C 90 % 4 km/h (8 km/h) 0 mm0 mm
02:00 10.5 °C 8.9 °C 90 % 4 km/h (7 km/h) 0 mm0 mm
01:54 10.5 °C 8.8 °C 89 % 5 km/h (8 km/h) 0 mm0 mm
01:48 10.6 °C 8.7 °C 88 % 6 km/h (8 km/h) 0 mm0 mm
01:42 10.7 °C 8.8 °C 88 % 7 km/h (11 km/h) 0 mm0 mm
01:36 10.8 °C 8.7 °C 87 % 7 km/h (10 km/h) 0 mm0 mm
01:30 10.9 °C 8.6 °C 86 % 5 km/h (8 km/h) 0 mm0 mm
01:24 11.1 °C 8.7 °C 85 % 5 km/h (9 km/h) 0 mm0 mm
01:18 11.3 °C 9 °C 86 % 6 km/h (9 km/h) 0 mm0 mm
01:12 11.3 °C 8.9 °C 85 % 6 km/h (8 km/h) 0 mm0 mm
01:06 11.4 °C 8.8 °C 84 % 5 km/h (8 km/h) 0 mm0 mm
01:00 11.5 °C 8.9 °C 84 % 6 km/h (12 km/h) 0 mm0 mm
00:54 11.5 °C 8.9 °C 84 % 7 km/h (12 km/h) 0 mm0 mm
00:48 11.6 °C 9 °C 84 % 6 km/h (9 km/h) 0 mm0 mm
00:42 11.6 °C 8.6 °C 82 % 5 km/h (8 km/h) 0 mm0 mm
00:36 11.7 °C 8.7 °C 82 % 6 km/h (9 km/h) 0 mm0 mm
00:30 12 °C 8.5 °C 79 % 6 km/h (10 km/h) 0 mm0 mm
00:24 12.3 °C 8.6 °C 78 % 7 km/h (10 km/h) 0 mm0 mm
00:18 12.7 °C 9 °C 78 % 6 km/h (9 km/h) 0 mm0 mm
00:12 12.9 °C 9 °C 77 % 6 km/h (9 km/h) 0 mm0 mm
00:06 12.6 °C 8.9 °C 78 % 5 km/h (8 km/h) 0 mm0 mm
00:00 12.5 °C 8.4 °C 76 % 4 km/h (8 km/h) 0 mm0 mm

Données via Météo-France

Relevés météo à Rocroi

Cette page rassemble les observations de la station de Rocroi : température, humidité, vent, précipitations et pression atmosphérique. Les graphiques facilitent le suivi de la journée, tandis que le tableau donne accès aux mesures horaires et infra-horaires disponibles.

Pour replacer ces mesures dans leur contexte, consultez la climatologie de Rocroi ainsi que ses normales et records. Retrouvez aussi la carte des observations météo en temps réel.